ENTO/TRF METAR and TAF weather

Enter ICAO airport designator
Station Type Date Time Source
ENTO METAR 2018/07/21 22:20 UTC NOAA

ENTO 212220Z AUTO 18007KT 9999 FEW230/// 19/14 Q1005


Station Type Date Time Source
ENTO Decoded METAR 2018/07/21 22:20 UTC NOAA

Torp, Norway (ENTO) 59-12N 010-16E 88M
Jul 21, 2018 - 06:20 PM EDT / 2018.07.21 2220 UTC
Wind: from the S (180 degrees) at 8 MPH (7 KT):0
Visibility: greater than 7 mile(s):0
Sky conditions: mostly clear
Temperature: 66 F (19 C)
Dew Point: 57 F (14 C)
Relative Humidity: 72%
Pressure (altimeter): 29.68 in. Hg (1005 hPa)
ob: ENTO 212220Z AUTO 18007KT 9999 FEW230/// 19/14 Q1005
cycle: 22

Station Type Date Time Source
ENTO TAF 2018/07/21 18:57 UTC NOAA

TAF ENTO 2118/2218 18010KT CAVOK
BECMG 2200/2202 03005KT PROB40 2202/2206 2500 BCFG BKN002


Example: see airport list